createdAt,value
2019-05-18T00:01:06.331Z,96815.22
2019-05-18T00:03:38.916Z,96814.31
2019-05-18T00:06:11.950Z,96815.77
2019-05-18T00:08:44.692Z,96816.45
2019-05-18T00:11:17.093Z,96817.25
2019-05-18T00:13:49.832Z,96814.20
2019-05-18T00:16:22.221Z,96822.87
2019-05-18T00:18:54.607Z,96815.66
2019-05-18T00:21:26.894Z,96811.34
2019-05-18T00:23:59.636Z,96814.25
2019-05-18T00:26:31.963Z,96814.25
2019-05-18T00:29:04.385Z,96811.96
2019-05-18T00:31:37.030Z,96812.36
2019-05-18T00:34:09.506Z,96811.61
2019-05-18T00:36:42.556Z,96810.92
2019-05-18T00:39:15.020Z,96808.58
2019-05-18T00:41:47.475Z,96811.47
2019-05-18T00:44:19.951Z,96812.59
2019-05-18T00:46:52.079Z,96814.84
2019-05-18T00:49:24.221Z,96808.41
2019-05-18T00:51:56.880Z,96812.61
2019-05-18T00:54:29.806Z,96806.06
2019-05-18T00:57:02.059Z,96806.41
2019-05-18T00:59:35.188Z,96805.33
2019-05-18T01:02:07.418Z,96801.95
2019-05-18T01:04:40.006Z,96799.84
2019-05-18T01:07:13.070Z,96798.73
2019-05-18T01:09:45.203Z,96800.59
2019-05-18T01:12:17.456Z,96801.30
2019-05-18T01:14:49.612Z,96797.55
2019-05-18T01:17:21.945Z,96803.48
2019-05-18T01:19:54.089Z,96803.14
2019-05-18T01:22:26.799Z,96800.52
2019-05-18T01:24:59.168Z,96808.23
2019-05-18T01:27:31.533Z,96803.35
2019-05-18T01:30:03.929Z,96802.52
2019-05-18T01:32:36.610Z,96802.13
2019-05-18T01:35:09.403Z,96809.47
2019-05-18T01:37:41.636Z,96808.48
2019-05-18T01:40:14.723Z,96805.88
2019-05-18T01:42:47.392Z,96808.92
2019-05-18T01:45:20.152Z,96804.42
2019-05-18T01:47:52.763Z,96803.34
2019-05-18T01:50:25.901Z,96805.69
2019-05-18T01:52:58.595Z,96808.70
2019-05-18T01:55:31.603Z,96804.67
2019-05-18T01:58:03.692Z,96802.67
2019-05-18T02:00:36.740Z,96802.55
2019-05-18T02:03:08.888Z,96795.26
2019-05-18T02:05:41.036Z,96793.63
2019-05-18T02:08:13.629Z,96797.34
2019-05-18T02:10:45.756Z,96796.91
2019-05-18T02:13:17.884Z,96795.07
2019-05-18T02:15:50.116Z,96797.44
2019-05-18T02:18:28.973Z,96798.00
2019-05-18T02:20:56.746Z,96803.53
2019-05-18T02:23:29.230Z,96799.70
2019-05-18T02:26:01.358Z,96795.00
2019-05-18T02:28:33.487Z,96793.50
2019-05-18T02:31:06.149Z,96794.91
2019-05-18T02:33:38.277Z,96792.73
2019-05-18T02:36:10.872Z,96792.44
2019-05-18T02:38:43.321Z,96789.22
2019-05-18T02:41:15.477Z,96790.08
2019-05-18T02:43:48.053Z,96788.39
2019-05-18T02:46:20.221Z,96788.44
2019-05-18T02:48:52.663Z,96783.46
2019-05-18T02:51:25.345Z,96784.97
2019-05-18T02:53:57.571Z,96785.16
2019-05-18T02:56:30.147Z,96783.25
2019-05-18T02:59:02.273Z,96779.83
2019-05-18T03:01:34.395Z,96781.75
2019-05-18T03:04:06.723Z,96785.53
2019-05-18T03:06:38.947Z,96780.02
2019-05-18T03:09:11.618Z,96780.34
2019-05-18T03:11:43.837Z,96778.55
2019-05-18T03:14:15.956Z,96780.77
2019-05-18T03:16:48.972Z,96776.12
2019-05-18T03:19:21.198Z,96775.52
2019-05-18T03:21:53.775Z,96784.31
2019-05-18T03:24:26.291Z,96784.00
2019-05-18T03:26:58.399Z,96783.00
2019-05-18T03:29:30.520Z,96777.08
2019-05-18T03:32:02.669Z,96780.98
2019-05-18T03:34:35.249Z,96780.83
2019-05-18T03:37:07.495Z,96777.69
2019-05-18T03:39:40.116Z,96781.42
2019-05-18T03:42:12.576Z,96783.38
2019-05-18T03:44:44.798Z,96783.12
2019-05-18T03:47:16.931Z,96785.70
2019-05-18T03:49:50.100Z,96781.87
2019-05-18T03:52:22.247Z,96782.95
2019-05-18T03:54:54.460Z,96781.09
2019-05-18T03:57:27.037Z,96786.38
2019-05-18T03:59:59.599Z,96784.20
2019-05-18T04:02:32.063Z,96784.72
2019-05-18T04:05:04.745Z,96786.29
2019-05-18T04:07:36.972Z,96784.75
2019-05-18T04:10:09.805Z,96780.58
2019-05-18T04:12:42.288Z,96783.16
2019-05-18T04:15:14.838Z,96789.59
2019-05-18T04:17:47.035Z,96789.67
2019-05-18T04:20:19.907Z,96791.80
2019-05-18T04:22:52.604Z,96791.98
2019-05-18T04:25:24.863Z,96795.39
2019-05-18T04:27:57.129Z,96795.10
2019-05-18T04:30:29.288Z,96793.80
2019-05-18T04:33:01.579Z,96802.90
2019-05-18T04:35:33.710Z,96803.09
2019-05-18T04:38:05.830Z,96802.30
2019-05-18T04:40:37.968Z,96800.74
2019-05-18T04:43:10.644Z,96801.89
2019-05-18T04:45:43.243Z,96801.26
2019-05-18T04:48:15.378Z,96803.67
2019-05-18T04:50:48.016Z,96799.28
2019-05-18T04:53:20.583Z,96799.90
2019-05-18T04:55:52.710Z,96795.52
2019-05-18T04:58:25.741Z,96798.33
2019-05-18T05:00:58.374Z,96802.94
2019-05-18T05:03:30.841Z,96803.48
2019-05-18T05:06:03.312Z,96804.24
2019-05-18T05:08:35.794Z,96804.08
2019-05-18T05:11:07.925Z,96810.20
2019-05-18T05:13:40.177Z,96807.14
2019-05-18T05:16:12.536Z,96801.44
2019-05-18T05:18:45.161Z,96806.38
2019-05-18T05:21:17.775Z,96805.61
2019-05-18T05:23:50.524Z,96806.84
2019-05-18T05:26:22.878Z,96815.34
2019-05-18T05:28:55.260Z,96815.96
2019-05-18T05:31:27.916Z,96820.09
2019-05-18T05:34:00.221Z,96820.34
2019-05-18T05:36:32.501Z,96817.02
2019-05-18T05:39:06.535Z,96810.98
2019-05-18T05:41:38.921Z,96810.62
2019-05-18T05:44:12.258Z,96811.19
2019-05-18T05:46:45.324Z,96813.50
2019-05-18T05:49:17.614Z,96808.59
2019-05-18T05:51:50.357Z,96802.87
2019-05-18T05:54:23.102Z,96807.78
2019-05-18T05:56:55.831Z,96812.54
2019-05-18T05:59:28.456Z,96812.23
2019-05-18T06:02:00.714Z,96813.92
2019-05-18T06:04:33.330Z,96811.55
2019-05-18T06:07:06.282Z,96815.19
2019-05-18T06:09:38.574Z,96810.24
2019-05-18T06:12:10.855Z,96809.47
2019-05-18T06:14:43.496Z,96819.53
2019-05-18T06:17:15.771Z,96821.34
2019-05-18T06:19:48.056Z,96823.92
2019-05-18T06:22:20.352Z,96819.92
2019-05-18T06:24:53.096Z,96821.09
2019-05-18T06:27:25.386Z,96823.88
2019-05-18T06:29:58.467Z,96826.29
2019-05-18T06:32:30.742Z,96821.45
2019-05-18T06:35:03.809Z,96823.06
2019-05-18T06:37:36.094Z,96822.09
2019-05-18T06:40:09.900Z,96823.22
2019-05-18T06:42:42.636Z,96822.41
2019-05-18T06:45:16.076Z,96824.80
2019-05-18T06:47:48.694Z,96814.44
2019-05-18T06:50:31.323Z,96821.57
2019-05-18T06:53:07.090Z,96821.70
2019-05-18T06:55:41.382Z,96825.41
2019-05-18T06:58:15.811Z,96821.64
2019-05-18T07:00:48.095Z,96821.76
2019-05-18T07:03:20.877Z,96822.34
2019-05-18T07:05:53.635Z,96823.36
2019-05-18T07:08:26.341Z,96825.41
2019-05-18T07:10:58.635Z,96818.17
2019-05-18T07:13:34.239Z,96819.23
2019-05-18T07:16:06.980Z,96815.78
2019-05-18T07:18:40.055Z,96815.43
2019-05-18T07:21:21.752Z,96814.89
2019-05-18T07:23:48.051Z,96812.08
2019-05-18T07:26:20.503Z,96806.04
2019-05-18T07:28:52.914Z,96805.17
2019-05-18T07:31:25.632Z,96807.34
2019-05-18T07:33:57.934Z,96807.73
2019-05-18T07:36:30.657Z,96808.32
2019-05-18T07:39:03.033Z,96808.98
2019-05-18T07:41:46.249Z,96807.02
2019-05-18T07:44:10.028Z,96803.62
2019-05-18T07:46:42.653Z,96805.07
2019-05-18T07:49:15.502Z,96812.98
2019-05-18T07:51:47.807Z,96807.64
2019-05-18T07:54:20.539Z,96804.19
2019-05-18T07:56:53.285Z,96802.13
2019-05-18T07:59:25.680Z,96797.15
2019-05-18T08:01:58.421Z,96801.03
2019-05-18T08:04:31.167Z,96798.73
2019-05-18T08:07:03.798Z,96802.19
2019-05-18T08:09:36.088Z,96800.07
2019-05-18T08:12:08.387Z,96800.06
2019-05-18T08:14:40.680Z,96799.61
2019-05-18T08:17:12.979Z,96799.66
2019-05-18T08:19:46.055Z,96796.95
2019-05-18T08:22:18.815Z,96798.52
2019-05-18T08:24:51.107Z,96796.47
2019-05-18T08:27:24.631Z,96795.80
2019-05-18T08:29:56.966Z,96789.31
2019-05-18T08:32:29.284Z,96790.27
2019-05-18T08:35:01.998Z,96791.10
2019-05-18T08:37:35.214Z,96778.95
2019-05-18T08:40:08.668Z,96773.53
2019-05-18T08:42:41.170Z,96774.20
2019-05-18T08:45:14.536Z,96775.64
2019-05-18T08:47:47.168Z,96778.02
2019-05-18T08:50:20.962Z,96770.94
2019-05-18T08:52:53.257Z,96766.80
2019-05-18T08:55:26.318Z,96763.54
2019-05-18T08:57:59.072Z,96765.27
2019-05-18T09:00:31.559Z,96762.24
2019-05-18T09:03:04.192Z,96763.45
2019-05-18T09:05:36.476Z,96765.76
2019-05-18T09:08:10.000Z,96765.52
2019-05-18T09:10:42.733Z,96758.91
2019-05-18T09:13:15.581Z,96758.01
2019-05-18T09:15:48.598Z,96759.48
2019-05-18T09:18:20.901Z,96763.74
2019-05-18T09:20:54.092Z,96765.48
2019-05-18T09:23:26.480Z,96767.31
2019-05-18T09:25:59.779Z,96762.34
2019-05-18T09:28:32.074Z,96755.28
2019-05-18T09:31:04.834Z,96753.92
2019-05-18T09:33:37.908Z,96756.50
2019-05-18T09:36:10.756Z,96751.30
2019-05-18T09:38:43.048Z,96750.33
2019-05-18T09:41:15.338Z,96746.14
2019-05-18T09:43:47.638Z,96748.05
2019-05-18T09:46:20.020Z,96745.00
2019-05-18T09:48:52.978Z,96742.22
2019-05-18T09:51:25.271Z,96740.72
2019-05-18T09:53:57.603Z,96735.73
2019-05-18T09:56:30.346Z,96735.17
2019-05-18T09:59:03.096Z,96732.51
2019-05-18T10:01:35.381Z,96730.09
2019-05-18T10:04:07.985Z,96731.03
2019-05-18T10:06:40.414Z,96733.52
2019-05-18T10:09:13.523Z,96736.23
2019-05-18T10:11:45.960Z,96736.22
2019-05-18T10:14:18.568Z,96732.55
2019-05-18T10:16:50.855Z,96726.36
2019-05-18T10:19:23.284Z,96723.87
2019-05-18T10:21:56.025Z,96725.67
2019-05-18T10:24:28.459Z,96722.66
2019-05-18T10:27:01.203Z,96720.46
2019-05-18T10:29:33.938Z,96724.45
2019-05-18T10:32:06.331Z,96722.84
2019-05-18T10:34:38.636Z,96719.38
2019-05-18T10:37:11.807Z,96716.98
2019-05-18T10:39:44.099Z,96717.58
2019-05-18T10:42:16.836Z,96710.36
2019-05-18T10:44:49.230Z,96709.42
2019-05-18T10:47:23.345Z,96703.37
2019-05-18T10:49:55.639Z,96705.30
2019-05-18T10:52:27.930Z,96703.77
2019-05-18T10:55:01.503Z,96692.41
2019-05-18T10:57:33.814Z,96685.63
2019-05-18T11:00:06.989Z,96684.42
2019-05-18T11:02:39.483Z,96689.21
2019-05-18T11:05:12.374Z,96685.08
2019-05-18T11:07:44.691Z,96679.59
2019-05-18T11:10:17.547Z,96678.66
2019-05-18T11:12:49.919Z,96667.92
2019-05-18T11:15:22.991Z,96673.02
2019-05-18T11:17:56.045Z,96664.71
2019-05-18T11:20:28.982Z,96666.16
2019-05-18T11:23:01.731Z,96663.26
2019-05-18T11:25:34.066Z,96658.67
2019-05-18T11:28:07.132Z,96657.86
2019-05-18T11:30:40.311Z,96660.53
2019-05-18T11:33:12.557Z,96660.59
2019-05-18T11:35:45.755Z,96659.49
2019-05-18T11:38:18.031Z,96651.75
2019-05-18T11:40:50.532Z,96663.52
2019-05-18T11:43:23.724Z,96654.97
2019-05-18T11:45:56.444Z,96652.30
2019-05-18T11:48:29.447Z,96651.80
2019-05-18T11:51:01.675Z,96656.73
2019-05-18T11:53:33.958Z,96652.12
2019-05-18T11:56:06.927Z,96654.34
2019-05-18T11:58:39.542Z,96649.28
2019-05-18T12:01:12.937Z,96646.13
2019-05-18T12:03:46.702Z,96647.95
2019-05-18T12:06:19.442Z,96647.61
2019-05-18T12:08:51.728Z,96642.36
2019-05-18T12:11:24.016Z,96639.72
2019-05-18T12:13:56.665Z,96640.77
2019-05-18T12:16:28.943Z,96633.09
2019-05-18T12:19:01.242Z,96634.63
2019-05-18T12:21:33.988Z,96638.83
2019-05-18T12:24:14.642Z,96634.79
2019-05-18T12:26:40.784Z,96630.78
2019-05-18T12:29:13.074Z,96627.40
2019-05-18T12:31:45.814Z,96628.43
2019-05-18T12:34:18.430Z,96626.33
2019-05-18T12:36:51.067Z,96630.34
2019-05-18T12:39:23.672Z,96623.30
2019-05-18T12:41:56.985Z,96623.34
2019-05-18T12:44:29.265Z,96616.91
2019-05-18T12:47:02.363Z,96616.45
2019-05-18T12:49:35.441Z,96621.81
2019-05-18T12:52:08.265Z,96618.34
2019-05-18T12:54:46.478Z,96617.69
2019-05-18T12:57:15.347Z,96615.84
2019-05-18T12:59:48.184Z,96607.92
2019-05-18T13:02:21.361Z,96604.88
2019-05-18T13:04:53.750Z,96611.77
2019-05-18T13:07:26.577Z,96608.84
2019-05-18T13:09:58.869Z,96604.61
2019-05-18T13:12:31.249Z,96606.72
2019-05-18T13:15:04.148Z,96598.87
2019-05-18T13:17:36.410Z,96593.77
2019-05-18T13:20:10.859Z,96599.52
2019-05-18T13:22:43.496Z,96588.52
2019-05-18T13:25:16.432Z,96586.95
2019-05-18T13:27:49.218Z,96590.23
2019-05-18T13:30:22.417Z,96586.82
2019-05-18T13:32:54.808Z,96581.23
2019-05-18T13:35:27.429Z,96578.72
2019-05-18T13:38:00.201Z,96574.45
2019-05-18T13:40:33.077Z,96575.70
2019-05-18T13:43:05.847Z,96572.45
2019-05-18T13:45:38.140Z,96567.95
2019-05-18T13:48:10.762Z,96571.51
2019-05-18T13:50:44.866Z,96562.80
2019-05-18T13:53:18.213Z,96563.94
2019-05-18T13:55:50.496Z,96561.95
2019-05-18T13:58:23.115Z,96558.38
2019-05-18T14:00:55.731Z,96556.76
2019-05-18T14:03:30.077Z,96554.78
2019-05-18T14:06:02.353Z,96554.91
2019-05-18T14:08:35.783Z,96551.24
2019-05-18T14:11:09.052Z,96552.48
2019-05-18T14:13:41.793Z,96551.98
2019-05-18T14:16:14.734Z,96550.16
2019-05-18T14:18:47.027Z,96549.16
2019-05-18T14:21:19.303Z,96547.64
2019-05-18T14:23:52.478Z,96548.13
2019-05-18T14:26:24.768Z,96548.39
2019-05-18T14:28:57.835Z,96545.85
2019-05-18T14:31:30.675Z,96548.13
2019-05-18T14:34:02.970Z,96536.72
2019-05-18T14:36:36.146Z,96538.31
2019-05-18T14:39:09.220Z,96534.83
2019-05-18T14:41:42.602Z,96536.29
2019-05-18T14:44:15.451Z,96533.44
2019-05-18T14:46:48.150Z,96532.48
2019-05-18T14:49:20.531Z,96535.38
2019-05-18T14:51:52.806Z,96541.45
2019-05-18T14:54:25.766Z,96540.97
2019-05-18T14:56:58.206Z,96540.23
2019-05-18T14:59:30.522Z,96539.33
2019-05-18T15:02:03.064Z,96537.32
2019-05-18T15:04:35.988Z,96539.95
2019-05-18T15:07:09.220Z,96536.39
2019-05-18T15:09:41.962Z,96533.03
2019-05-18T15:12:14.216Z,96529.52
2019-05-18T15:14:46.509Z,96524.25
2019-05-18T15:17:18.797Z,96525.98
2019-05-18T15:19:51.539Z,96526.71
2019-05-18T15:22:24.736Z,96522.93
2019-05-18T15:24:57.163Z,96522.27
2019-05-18T15:27:30.512Z,96523.03
2019-05-18T15:30:03.002Z,96522.20
2019-05-18T15:32:35.802Z,96519.33
2019-05-18T15:35:10.131Z,96515.78
2019-05-18T15:37:43.683Z,96517.37
2019-05-18T15:40:16.843Z,96511.94
2019-05-18T15:42:49.701Z,96518.34
2019-05-18T15:45:24.717Z,96511.50
2019-05-18T15:47:56.786Z,96508.58
2019-05-18T15:50:29.283Z,96510.87
2019-05-18T15:53:01.568Z,96511.14
2019-05-18T15:55:34.299Z,96506.55
2019-05-18T15:58:06.922Z,96505.28
2019-05-18T16:00:39.668Z,96507.63
2019-05-18T16:03:12.965Z,96512.07
2019-05-18T16:05:46.146Z,96512.05
2019-05-18T16:08:18.879Z,96508.97
2019-05-18T16:10:51.621Z,96508.13
2019-05-18T16:13:24.354Z,96518.37
2019-05-18T16:15:57.326Z,96512.32
2019-05-18T16:18:29.611Z,96515.59
2019-05-18T16:21:02.819Z,96514.24
2019-05-18T16:23:35.107Z,96513.00
2019-05-18T16:26:20.713Z,96517.48
2019-05-18T16:28:42.747Z,96514.88
2019-05-18T16:31:15.416Z,96520.46
2019-05-18T16:33:48.156Z,96519.42
2019-05-18T16:36:20.449Z,96518.47
2019-05-18T16:38:52.736Z,96523.83
2019-05-18T16:41:25.464Z,96523.88
2019-05-18T16:43:58.201Z,96530.34
2019-05-18T16:46:30.500Z,96526.88
2019-05-18T16:49:02.794Z,96533.04
2019-05-18T16:51:35.063Z,96528.02
2019-05-18T16:54:08.032Z,96526.13
2019-05-18T16:56:40.660Z,96523.16
2019-05-18T16:59:13.409Z,96527.55
2019-05-18T17:01:46.804Z,96524.98
2019-05-18T17:04:19.998Z,96523.27
2019-05-18T17:06:52.614Z,96521.80
2019-05-18T17:09:26.082Z,96527.09
2019-05-18T17:11:58.443Z,96530.02
2019-05-18T17:14:30.766Z,96537.20
2019-05-18T17:17:03.055Z,96541.23
2019-05-18T17:19:35.670Z,96545.07
2019-05-18T17:22:07.968Z,96541.15
2019-05-18T17:24:40.625Z,96541.03
2019-05-18T17:27:12.899Z,96540.73
2019-05-18T17:29:45.531Z,96545.89
2019-05-18T17:32:18.835Z,96546.46
2019-05-18T17:34:51.132Z,96550.89
2019-05-18T17:37:23.877Z,96551.46
2019-05-18T17:39:56.944Z,96551.88
2019-05-18T17:42:29.688Z,96554.08
2019-05-18T17:45:01.986Z,96554.39
2019-05-18T17:47:35.078Z,96558.77
2019-05-18T17:50:09.231Z,96564.69
2019-05-18T17:52:42.093Z,96557.42
2019-05-18T17:55:16.571Z,96567.25
2019-05-18T17:57:48.970Z,96567.89
2019-05-18T18:00:21.655Z,96568.92
2019-05-18T18:02:54.403Z,96568.95
2019-05-18T18:05:27.021Z,96568.30
2019-05-18T18:07:59.757Z,96573.30
2019-05-18T18:10:33.003Z,96572.35
2019-05-18T18:13:05.412Z,96572.13
2019-05-18T18:15:38.122Z,96570.87
2019-05-18T18:18:11.199Z,96575.17
2019-05-18T18:20:44.085Z,96575.32
2019-05-18T18:23:17.267Z,96576.07
2019-05-18T18:25:50.040Z,96581.78
2019-05-18T18:28:22.923Z,96584.98
2019-05-18T18:30:55.598Z,96585.13
2019-05-18T18:33:28.324Z,96591.42
2019-05-18T18:36:00.943Z,96595.04
2019-05-18T18:38:33.686Z,96596.77
2019-05-18T18:41:06.444Z,96598.21
2019-05-18T18:43:39.251Z,96599.85
2019-05-18T18:46:12.494Z,96602.86
2019-05-18T18:48:44.790Z,96601.20
2019-05-18T18:51:17.541Z,96601.06
2019-05-18T18:53:49.835Z,96599.68
2019-05-18T18:56:22.457Z,96599.67
2019-05-18T18:58:54.920Z,96601.59
2019-05-18T19:01:27.567Z,96606.38
2019-05-18T19:03:59.868Z,96606.90
2019-05-18T19:06:32.493Z,96612.41
2019-05-18T19:09:07.044Z,96611.70
2019-05-18T19:11:40.367Z,96615.44
2019-05-18T19:14:13.043Z,96617.28
2019-05-18T19:16:45.786Z,96620.86
2019-05-18T19:19:18.540Z,96618.50
2019-05-18T19:21:51.839Z,96624.41
2019-05-18T19:24:24.139Z,96624.20
2019-05-18T19:26:57.240Z,96624.98
2019-05-18T19:29:30.280Z,96629.90
2019-05-18T19:32:02.881Z,96630.03
2019-05-18T19:34:36.077Z,96626.99
2019-05-18T19:37:08.823Z,96629.75
2019-05-18T19:39:41.123Z,96632.40
2019-05-18T19:42:13.411Z,96634.87
2019-05-18T19:44:45.700Z,96634.40
2019-05-18T19:47:17.990Z,96641.70
2019-05-18T19:49:50.734Z,96642.22
2019-05-18T19:52:23.348Z,96642.67
2019-05-18T19:54:55.637Z,96643.24
2019-05-18T19:57:28.381Z,96643.66
2019-05-18T20:00:01.456Z,96639.44
2019-05-18T20:02:34.069Z,96640.77
2019-05-18T20:05:08.901Z,96642.84
2019-05-18T20:07:41.764Z,96642.58
2019-05-18T20:10:15.016Z,96647.53
2019-05-18T20:12:47.303Z,96646.33
2019-05-18T20:15:20.253Z,96643.06
2019-05-18T20:17:52.647Z,96651.27
2019-05-18T20:20:25.137Z,96650.69
2019-05-18T20:22:57.412Z,96651.22
2019-05-18T20:25:30.657Z,96652.88
2019-05-18T20:28:03.276Z,96653.96
2019-05-18T20:30:36.020Z,96654.23
2019-05-18T20:33:08.763Z,96650.07
2019-05-18T20:35:42.406Z,96654.30
2019-05-18T20:38:15.151Z,96654.89
2019-05-18T20:40:47.436Z,96663.19
2019-05-18T20:43:20.621Z,96662.55
2019-05-18T20:45:53.268Z,96664.30
2019-05-18T20:48:25.542Z,96662.85
2019-05-18T20:50:58.289Z,96665.61
2019-05-18T20:53:31.415Z,96665.31
2019-05-18T20:56:04.559Z,96662.37
2019-05-18T20:58:40.506Z,96669.66
2019-05-18T21:01:12.553Z,96663.67
2019-05-18T21:03:45.120Z,96665.77
2019-05-18T21:06:17.404Z,96667.35
2019-05-18T21:08:50.445Z,96667.50
2019-05-18T21:11:23.073Z,96669.45
2019-05-18T21:13:57.647Z,96671.85
2019-05-18T21:16:29.885Z,96670.23
2019-05-18T21:19:03.032Z,96669.11
2019-05-18T21:21:36.263Z,96671.22
2019-05-18T21:24:09.512Z,96670.27
2019-05-18T21:26:41.933Z,96667.02
2019-05-18T21:29:14.660Z,96671.06
2019-05-18T21:31:46.953Z,96673.14
2019-05-18T21:34:19.529Z,96670.60
2019-05-18T21:36:52.296Z,96668.18
2019-05-18T21:39:24.972Z,96668.69
2019-05-18T21:41:57.714Z,96672.77
2019-05-18T21:44:30.301Z,96673.77
2019-05-18T21:47:03.381Z,96666.84
2019-05-18T21:49:35.634Z,96666.99
2019-05-18T21:52:08.266Z,96663.33
2019-05-18T21:54:40.505Z,96666.06
2019-05-18T21:57:13.248Z,96665.44
2019-05-18T21:59:45.822Z,96661.39
2019-05-18T22:02:18.675Z,96653.47
2019-05-18T22:04:51.374Z,96656.84
2019-05-18T22:07:23.996Z,96656.22
2019-05-18T22:09:56.336Z,96658.62
2019-05-18T22:12:28.609Z,96659.27
2019-05-18T22:15:01.574Z,96653.97
2019-05-18T22:17:36.738Z,96654.95
2019-05-18T22:20:09.221Z,96655.43
2019-05-18T22:22:42.194Z,96649.76
2019-05-18T22:25:14.584Z,96654.93
2019-05-18T22:27:46.966Z,96649.77
2019-05-18T22:30:19.316Z,96646.40
2019-05-18T22:32:51.569Z,96646.08
2019-05-18T22:35:24.202Z,96641.24
2019-05-18T22:37:56.823Z,96642.05
2019-05-18T22:40:29.129Z,96642.55
2019-05-18T22:43:02.208Z,96636.73
2019-05-18T22:45:34.791Z,96633.86
2019-05-18T22:48:07.655Z,96635.16
2019-05-18T22:50:41.282Z,96629.18
2019-05-18T22:53:13.615Z,96631.92
2019-05-18T22:55:46.585Z,96632.59
2019-05-18T22:58:19.322Z,96628.74
2019-05-18T23:00:51.709Z,96626.31
2019-05-18T23:03:24.661Z,96622.94
2019-05-18T23:05:57.403Z,96621.31
2019-05-18T23:08:30.803Z,96620.53
2019-05-18T23:11:03.428Z,96623.09
2019-05-18T23:13:36.060Z,96623.90
2019-05-18T23:16:08.691Z,96618.41
2019-05-18T23:18:54.492Z,96623.28
2019-05-18T23:21:14.884Z,96622.95
2019-05-18T23:23:47.721Z,96615.68
2019-05-18T23:26:20.320Z,96615.05
2019-05-18T23:28:52.651Z,96610.35
2019-05-18T23:31:25.391Z,96607.13
2019-05-18T23:33:58.137Z,96609.54
2019-05-18T23:36:31.309Z,96610.52
2019-05-18T23:39:05.064Z,96602.45
2019-05-18T23:41:37.783Z,96604.71
2019-05-18T23:44:10.080Z,96604.08
2019-05-18T23:46:42.381Z,96606.95
2019-05-18T23:49:15.102Z,96601.48
2019-05-18T23:51:47.834Z,96599.72
2019-05-18T23:54:20.124Z,96597.94
2019-05-18T23:56:52.408Z,96602.45
2019-05-18T23:59:24.701Z,96601.02
